sensor_id;sensor_type;location;lat;lon;timestamp;P1;durP1;ratioP1;P2;durP2;ratioP2
17424;SDS011;8830;50.978;5.058;2023-03-04T00:00:38;9.40;;;7.43;;
17424;SDS011;8830;50.978;5.058;2023-03-04T00:03:09;9.43;;;7.57;;
17424;SDS011;8830;50.978;5.058;2023-03-04T00:05:40;11.07;;;7.53;;
17424;SDS011;8830;50.978;5.058;2023-03-04T00:08:07;10.57;;;6.77;;
17424;SDS011;8830;50.978;5.058;2023-03-04T00:10:34;10.00;;;7.77;;
17424;SDS011;8830;50.978;5.058;2023-03-04T00:13:02;14.93;;;7.20;;
17424;SDS011;8830;50.978;5.058;2023-03-04T00:15:29;7.93;;;7.13;;
17424;SDS011;8830;50.978;5.058;2023-03-04T00:17:57;14.33;;;7.17;;
17424;SDS011;8830;50.978;5.058;2023-03-04T00:20:24;10.27;;;6.70;;
17424;SDS011;8830;50.978;5.058;2023-03-04T00:22:55;12.40;;;6.80;;
17424;SDS011;8830;50.978;5.058;2023-03-04T00:25:22;11.17;;;6.33;;
17424;SDS011;8830;50.978;5.058;2023-03-04T00:27:48;10.00;;;5.93;;
17424;SDS011;8830;50.978;5.058;2023-03-04T00:30:16;17.47;;;6.07;;
17424;SDS011;8830;50.978;5.058;2023-03-04T00:32:43;15.60;;;5.97;;
17424;SDS011;8830;50.978;5.058;2023-03-04T00:35:11;12.50;;;5.90;;
17424;SDS011;8830;50.978;5.058;2023-03-04T00:37:38;8.80;;;5.17;;
17424;SDS011;8830;50.978;5.058;2023-03-04T00:40:08;10.37;;;5.67;;
17424;SDS011;8830;50.978;5.058;2023-03-04T00:42:36;11.90;;;5.60;;
17424;SDS011;8830;50.978;5.058;2023-03-04T00:45:04;13.47;;;5.73;;
17424;SDS011;8830;50.978;5.058;2023-03-04T00:47:32;12.40;;;5.57;;
17424;SDS011;8830;50.978;5.058;2023-03-04T00:49:58;12.70;;;5.67;;
17424;SDS011;8830;50.978;5.058;2023-03-04T00:52:28;8.00;;;4.97;;
17424;SDS011;8830;50.978;5.058;2023-03-04T00:54:55;8.87;;;5.50;;
17424;SDS011;8830;50.978;5.058;2023-03-04T00:57:23;7.73;;;5.00;;
17424;SDS011;8830;50.978;5.058;2023-03-04T00:59:50;10.60;;;5.83;;
17424;SDS011;8830;50.978;5.058;2023-03-04T01:02:19;16.50;;;6.03;;
17424;SDS011;8830;50.978;5.058;2023-03-04T01:04:46;12.63;;;5.23;;
17424;SDS011;8830;50.978;5.058;2023-03-04T01:07:12;20.33;;;6.17;;
17424;SDS011;8830;50.978;5.058;2023-03-04T01:09:40;8.87;;;4.97;;
17424;SDS011;8830;50.978;5.058;2023-03-04T01:12:06;17.67;;;6.50;;
17424;SDS011;8830;50.978;5.058;2023-03-04T01:14:35;20.23;;;6.37;;
17424;SDS011;8830;50.978;5.058;2023-03-04T01:17:10;13.93;;;6.07;;
17424;SDS011;8830;50.978;5.058;2023-03-04T01:19:38;13.47;;;5.63;;
17424;SDS011;8830;50.978;5.058;2023-03-04T01:22:07;14.77;;;5.80;;
17424;SDS011;8830;50.978;5.058;2023-03-04T01:24:34;14.90;;;6.33;;
17424;SDS011;8830;50.978;5.058;2023-03-04T01:27:02;14.60;;;5.30;;
17424;SDS011;8830;50.978;5.058;2023-03-04T01:29:29;17.93;;;5.70;;
17424;SDS011;8830;50.978;5.058;2023-03-04T01:31:57;9.77;;;4.60;;
17424;SDS011;8830;50.978;5.058;2023-03-04T01:34:24;15.50;;;5.30;;
17424;SDS011;8830;50.978;5.058;2023-03-04T01:36:51;9.63;;;4.93;;
17424;SDS011;8830;50.978;5.058;2023-03-04T01:39:19;18.20;;;5.20;;
17424;SDS011;8830;50.978;5.058;2023-03-04T01:41:46;15.67;;;4.17;;
17424;SDS011;8830;50.978;5.058;2023-03-04T01:44:13;10.93;;;4.53;;
17424;SDS011;8830;50.978;5.058;2023-03-04T01:46:41;17.17;;;5.63;;
17424;SDS011;8830;50.978;5.058;2023-03-04T01:49:14;20.07;;;5.93;;
17424;SDS011;8830;50.978;5.058;2023-03-04T01:51:41;10.17;;;5.10;;
17424;SDS011;8830;50.978;5.058;2023-03-04T01:54:11;13.33;;;5.40;;
17424;SDS011;8830;50.978;5.058;2023-03-04T01:56:38;15.67;;;5.73;;
17424;SDS011;8830;50.978;5.058;2023-03-04T01:59:06;8.93;;;5.00;;
17424;SDS011;8830;50.978;5.058;2023-03-04T02:01:35;12.30;;;5.40;;
17424;SDS011;8830;50.978;5.058;2023-03-04T02:04:04;12.90;;;5.13;;
17424;SDS011;8830;50.978;5.058;2023-03-04T02:06:33;11.83;;;5.20;;
17424;SDS011;8830;50.978;5.058;2023-03-04T02:09:01;9.33;;;5.40;;
17424;SDS011;8830;50.978;5.058;2023-03-04T02:11:29;11.40;;;5.30;;
17424;SDS011;8830;50.978;5.058;2023-03-04T02:13:57;20.13;;;6.43;;
17424;SDS011;8830;50.978;5.058;2023-03-04T02:16:24;12.53;;;5.60;;
17424;SDS011;8830;50.978;5.058;2023-03-04T02:18:52;10.00;;;4.90;;
17424;SDS011;8830;50.978;5.058;2023-03-04T02:21:20;8.50;;;4.97;;
17424;SDS011;8830;50.978;5.058;2023-03-04T02:23:53;14.30;;;5.57;;
17424;SDS011;8830;50.978;5.058;2023-03-04T02:26:30;12.27;;;5.07;;
17424;SDS011;8830;50.978;5.058;2023-03-04T02:28:59;12.57;;;4.67;;
17424;SDS011;8830;50.978;5.058;2023-03-04T02:31:29;10.00;;;5.00;;
17424;SDS011;8830;50.978;5.058;2023-03-04T02:33:58;12.33;;;5.57;;
17424;SDS011;8830;50.978;5.058;2023-03-04T02:36:28;12.07;;;4.27;;
17424;SDS011;8830;50.978;5.058;2023-03-04T02:38:59;14.63;;;4.70;;
17424;SDS011;8830;50.978;5.058;2023-03-04T02:41:29;11.53;;;4.70;;
17424;SDS011;8830;50.978;5.058;2023-03-04T02:43:56;14.67;;;4.57;;
17424;SDS011;8830;50.978;5.058;2023-03-04T02:46:23;7.40;;;4.80;;
17424;SDS011;8830;50.978;5.058;2023-03-04T02:48:51;15.50;;;4.53;;
17424;SDS011;8830;50.978;5.058;2023-03-04T02:51:18;11.77;;;4.07;;
17424;SDS011;8830;50.978;5.058;2023-03-04T02:53:45;20.13;;;5.10;;
17424;SDS011;8830;50.978;5.058;2023-03-04T02:56:12;10.53;;;5.07;;
17424;SDS011;8830;50.978;5.058;2023-03-04T02:58:41;11.77;;;4.03;;
17424;SDS011;8830;50.978;5.058;2023-03-04T03:01:08;11.97;;;4.10;;
17424;SDS011;8830;50.978;5.058;2023-03-04T03:03:36;14.33;;;4.20;;
17424;SDS011;8830;50.978;5.058;2023-03-04T03:06:11;11.57;;;4.27;;
17424;SDS011;8830;50.978;5.058;2023-03-04T03:08:39;12.87;;;4.13;;
17424;SDS011;8830;50.978;5.058;2023-03-04T03:11:06;16.83;;;4.30;;
17424;SDS011;8830;50.978;5.058;2023-03-04T03:13:35;10.20;;;3.93;;
17424;SDS011;8830;50.978;5.058;2023-03-04T03:16:05;10.87;;;3.20;;
17424;SDS011;8830;50.978;5.058;2023-03-04T03:18:32;12.90;;;4.20;;
17424;SDS011;8830;50.978;5.058;2023-03-04T03:20:59;13.47;;;3.73;;
17424;SDS011;8830;50.978;5.058;2023-03-04T03:23:30;9.53;;;3.27;;
17424;SDS011;8830;50.978;5.058;2023-03-04T03:25:57;14.10;;;3.93;;
17424;SDS011;8830;50.978;5.058;2023-03-04T03:28:24;12.57;;;3.60;;
17424;SDS011;8830;50.978;5.058;2023-03-04T03:30:51;11.93;;;3.33;;
17424;SDS011;8830;50.978;5.058;2023-03-04T03:33:19;14.40;;;3.67;;
17424;SDS011;8830;50.978;5.058;2023-03-04T03:35:46;14.17;;;3.63;;
17424;SDS011;8830;50.978;5.058;2023-03-04T03:38:13;13.50;;;3.07;;
17424;SDS011;8830;50.978;5.058;2023-03-04T03:40:40;6.17;;;2.83;;
17424;SDS011;8830;50.978;5.058;2023-03-04T03:43:08;13.73;;;3.40;;
17424;SDS011;8830;50.978;5.058;2023-03-04T03:48:05;10.90;;;2.80;;
17424;SDS011;8830;50.978;5.058;2023-03-04T03:50:33;10.53;;;3.10;;
17424;SDS011;8830;50.978;5.058;2023-03-04T03:53:00;9.23;;;3.57;;
17424;SDS011;8830;50.978;5.058;2023-03-04T03:55:27;8.87;;;3.13;;
17424;SDS011;8830;50.978;5.058;2023-03-04T03:57:54;15.93;;;3.23;;
17424;SDS011;8830;50.978;5.058;2023-03-04T04:00:21;12.37;;;3.43;;
17424;SDS011;8830;50.978;5.058;2023-03-04T04:02:49;11.10;;;2.80;;
17424;SDS011;8830;50.978;5.058;2023-03-04T04:05:16;15.13;;;3.60;;
17424;SDS011;8830;50.978;5.058;2023-03-04T04:07:46;11.13;;;3.17;;
17424;SDS011;8830;50.978;5.058;2023-03-04T04:10:13;12.93;;;3.30;;
17424;SDS011;8830;50.978;5.058;2023-03-04T04:12:40;12.93;;;3.47;;
17424;SDS011;8830;50.978;5.058;2023-03-04T04:15:08;15.57;;;3.50;;
17424;SDS011;8830;50.978;5.058;2023-03-04T04:17:36;9.10;;;3.23;;
17424;SDS011;8830;50.978;5.058;2023-03-04T04:20:04;16.23;;;3.53;;
17424;SDS011;8830;50.978;5.058;2023-03-04T04:22:32;6.33;;;3.00;;
17424;SDS011;8830;50.978;5.058;2023-03-04T04:25:01;12.03;;;3.23;;
17424;SDS011;8830;50.978;5.058;2023-03-04T04:27:32;15.40;;;3.57;;
17424;SDS011;8830;50.978;5.058;2023-03-04T04:29:59;11.57;;;3.07;;
17424;SDS011;8830;50.978;5.058;2023-03-04T04:32:26;6.77;;;3.27;;
17424;SDS011;8830;50.978;5.058;2023-03-04T04:34:53;15.30;;;3.50;;
17424;SDS011;8830;50.978;5.058;2023-03-04T04:37:20;9.57;;;3.37;;
17424;SDS011;8830;50.978;5.058;2023-03-04T04:39:47;13.13;;;3.60;;
17424;SDS011;8830;50.978;5.058;2023-03-04T04:42:17;14.70;;;3.80;;
17424;SDS011;8830;50.978;5.058;2023-03-04T04:44:44;16.20;;;3.73;;
17424;SDS011;8830;50.978;5.058;2023-03-04T04:47:11;8.40;;;4.10;;
17424;SDS011;8830;50.978;5.058;2023-03-04T04:49:39;11.93;;;3.93;;
17424;SDS011;8830;50.978;5.058;2023-03-04T04:52:06;11.70;;;3.30;;
17424;SDS011;8830;50.978;5.058;2023-03-04T04:54:35;8.73;;;2.70;;
17424;SDS011;8830;50.978;5.058;2023-03-04T04:57:03;10.50;;;3.37;;
17424;SDS011;8830;50.978;5.058;2023-03-04T04:59:32;11.93;;;3.53;;
17424;SDS011;8830;50.978;5.058;2023-03-04T05:01:59;15.50;;;3.70;;
17424;SDS011;8830;50.978;5.058;2023-03-04T05:04:26;7.43;;;3.23;;
17424;SDS011;8830;50.978;5.058;2023-03-04T05:06:53;9.57;;;3.50;;
17424;SDS011;8830;50.978;5.058;2023-03-04T05:09:20;10.97;;;3.23;;
17424;SDS011;8830;50.978;5.058;2023-03-04T05:11:47;11.70;;;3.00;;
17424;SDS011;8830;50.978;5.058;2023-03-04T05:14:16;8.43;;;3.57;;
17424;SDS011;8830;50.978;5.058;2023-03-04T05:16:46;10.37;;;2.93;;
17424;SDS011;8830;50.978;5.058;2023-03-04T05:19:13;10.10;;;3.00;;
17424;SDS011;8830;50.978;5.058;2023-03-04T05:21:40;11.87;;;3.57;;
17424;SDS011;8830;50.978;5.058;2023-03-04T05:24:07;9.47;;;4.20;;
17424;SDS011;8830;50.978;5.058;2023-03-04T05:26:34;7.53;;;2.87;;
17424;SDS011;8830;50.978;5.058;2023-03-04T05:29:01;11.37;;;3.87;;
17424;SDS011;8830;50.978;5.058;2023-03-04T05:31:29;11.97;;;3.50;;
17424;SDS011;8830;50.978;5.058;2023-03-04T05:33:58;8.33;;;3.10;;
17424;SDS011;8830;50.978;5.058;2023-03-04T05:36:25;8.47;;;3.47;;
17424;SDS011;8830;50.978;5.058;2023-03-04T05:38:52;11.53;;;3.47;;
17424;SDS011;8830;50.978;5.058;2023-03-04T05:41:20;8.90;;;3.40;;
17424;SDS011;8830;50.978;5.058;2023-03-04T05:43:47;18.20;;;4.07;;
17424;SDS011;8830;50.978;5.058;2023-03-04T05:46:15;9.73;;;3.23;;
17424;SDS011;8830;50.978;5.058;2023-03-04T05:48:48;14.00;;;3.40;;
17424;SDS011;8830;50.978;5.058;2023-03-04T05:51:16;12.63;;;3.77;;
17424;SDS011;8830;50.978;5.058;2023-03-04T05:53:43;12.50;;;3.83;;
17424;SDS011;8830;50.978;5.058;2023-03-04T05:56:13;14.03;;;3.90;;
17424;SDS011;8830;50.978;5.058;2023-03-04T05:58:41;13.30;;;4.33;;
17424;SDS011;8830;50.978;5.058;2023-03-04T06:01:09;13.70;;;3.70;;
17424;SDS011;8830;50.978;5.058;2023-03-04T06:03:36;9.70;;;3.87;;
17424;SDS011;8830;50.978;5.058;2023-03-04T06:06:03;15.63;;;3.70;;
17424;SDS011;8830;50.978;5.058;2023-03-04T06:08:32;8.43;;;3.60;;
17424;SDS011;8830;50.978;5.058;2023-03-04T06:11:04;10.20;;;3.13;;
17424;SDS011;8830;50.978;5.058;2023-03-04T06:13:32;13.90;;;3.63;;
17424;SDS011;8830;50.978;5.058;2023-03-04T06:16:01;11.97;;;3.23;;
17424;SDS011;8830;50.978;5.058;2023-03-04T06:18:29;5.30;;;3.00;;
17424;SDS011;8830;50.978;5.058;2023-03-04T06:20:57;10.57;;;3.20;;
17424;SDS011;8830;50.978;5.058;2023-03-04T06:23:26;8.80;;;2.90;;
17424;SDS011;8830;50.978;5.058;2023-03-04T06:25:55;10.50;;;3.13;;
17424;SDS011;8830;50.978;5.058;2023-03-04T06:28:24;9.97;;;3.27;;
17424;SDS011;8830;50.978;5.058;2023-03-04T06:30:51;9.80;;;3.47;;
17424;SDS011;8830;50.978;5.058;2023-03-04T06:33:19;9.30;;;3.07;;
17424;SDS011;8830;50.978;5.058;2023-03-04T06:35:46;11.40;;;3.70;;
17424;SDS011;8830;50.978;5.058;2023-03-04T06:38:13;14.90;;;3.17;;
17424;SDS011;8830;50.978;5.058;2023-03-04T06:40:41;15.00;;;3.23;;
17424;SDS011;8830;50.978;5.058;2023-03-04T06:43:11;8.73;;;3.30;;
17424;SDS011;8830;50.978;5.058;2023-03-04T06:45:38;11.57;;;3.20;;
17424;SDS011;8830;50.978;5.058;2023-03-04T06:48:05;8.50;;;3.27;;
17424;SDS011;8830;50.978;5.058;2023-03-04T06:50:32;7.80;;;2.83;;
17424;SDS011;8830;50.978;5.058;2023-03-04T06:52:59;15.73;;;3.60;;
17424;SDS011;8830;50.978;5.058;2023-03-04T06:55:27;8.17;;;2.70;;
17424;SDS011;8830;50.978;5.058;2023-03-04T06:57:54;8.50;;;3.17;;
17424;SDS011;8830;50.978;5.058;2023-03-04T07:00:23;10.00;;;3.10;;
17424;SDS011;8830;50.978;5.058;2023-03-04T07:02:50;8.53;;;2.73;;
17424;SDS011;8830;50.978;5.058;2023-03-04T07:05:17;12.30;;;3.03;;
17424;SDS011;8830;50.978;5.058;2023-03-04T07:07:44;13.23;;;3.67;;
17424;SDS011;8830;50.978;5.058;2023-03-04T07:10:12;7.43;;;3.43;;
17424;SDS011;8830;50.978;5.058;2023-03-04T07:12:39;10.50;;;2.90;;
17424;SDS011;8830;50.978;5.058;2023-03-04T07:15:08;7.30;;;3.67;;
17424;SDS011;8830;50.978;5.058;2023-03-04T07:17:37;10.77;;;3.60;;
17424;SDS011;8830;50.978;5.058;2023-03-04T07:20:04;8.03;;;3.17;;
17424;SDS011;8830;50.978;5.058;2023-03-04T07:22:32;10.33;;;3.00;;
17424;SDS011;8830;50.978;5.058;2023-03-04T07:24:59;10.37;;;3.30;;
17424;SDS011;8830;50.978;5.058;2023-03-04T07:27:25;7.87;;;2.77;;
17424;SDS011;8830;50.978;5.058;2023-03-04T07:29:52;14.77;;;2.77;;
17424;SDS011;8830;50.978;5.058;2023-03-04T07:32:19;16.97;;;3.40;;
17424;SDS011;8830;50.978;5.058;2023-03-04T07:34:48;12.13;;;3.40;;
17424;SDS011;8830;50.978;5.058;2023-03-04T07:37:14;13.07;;;3.33;;
17424;SDS011;8830;50.978;5.058;2023-03-04T07:39:42;8.70;;;2.90;;
17424;SDS011;8830;50.978;5.058;2023-03-04T07:42:09;7.90;;;3.33;;
17424;SDS011;8830;50.978;5.058;2023-03-04T07:44:36;7.53;;;3.10;;
17424;SDS011;8830;50.978;5.058;2023-03-04T07:47:03;6.90;;;3.03;;
17424;SDS011;8830;50.978;5.058;2023-03-04T07:49:30;7.57;;;3.27;;
17424;SDS011;8830;50.978;5.058;2023-03-04T07:52:01;7.47;;;3.20;;
17424;SDS011;8830;50.978;5.058;2023-03-04T07:54:28;8.40;;;2.90;;
17424;SDS011;8830;50.978;5.058;2023-03-04T07:56:56;10.73;;;3.10;;
17424;SDS011;8830;50.978;5.058;2023-03-04T07:59:26;9.73;;;3.27;;
17424;SDS011;8830;50.978;5.058;2023-03-04T08:01:53;7.97;;;3.40;;
17424;SDS011;8830;50.978;5.058;2023-03-04T08:04:19;8.73;;;3.20;;
17424;SDS011;8830;50.978;5.058;2023-03-04T08:06:46;9.30;;;3.13;;
17424;SDS011;8830;50.978;5.058;2023-03-04T08:09:15;9.87;;;2.87;;
17424;SDS011;8830;50.978;5.058;2023-03-04T08:11:42;10.47;;;2.63;;
17424;SDS011;8830;50.978;5.058;2023-03-04T08:14:10;7.17;;;3.27;;
17424;SDS011;8830;50.978;5.058;2023-03-04T08:16:37;8.80;;;2.30;;
17424;SDS011;8830;50.978;5.058;2023-03-04T08:19:05;6.27;;;2.67;;
17424;SDS011;8830;50.978;5.058;2023-03-04T08:21:32;8.40;;;3.00;;
17424;SDS011;8830;50.978;5.058;2023-03-04T08:24:00;7.47;;;2.63;;
17424;SDS011;8830;50.978;5.058;2023-03-04T08:26:34;8.70;;;3.13;;
17424;SDS011;8830;50.978;5.058;2023-03-04T08:29:05;6.10;;;2.17;;
17424;SDS011;8830;50.978;5.058;2023-03-04T08:31:32;6.50;;;2.27;;
17424;SDS011;8830;50.978;5.058;2023-03-04T08:34:00;10.47;;;2.80;;
17424;SDS011;8830;50.978;5.058;2023-03-04T08:36:28;7.57;;;2.20;;
17424;SDS011;8830;50.978;5.058;2023-03-04T08:38:55;6.20;;;1.97;;
17424;SDS011;8830;50.978;5.058;2023-03-04T08:41:22;7.13;;;1.73;;
17424;SDS011;8830;50.978;5.058;2023-03-04T08:43:51;10.97;;;2.00;;
17424;SDS011;8830;50.978;5.058;2023-03-04T08:46:18;6.07;;;2.43;;
17424;SDS011;8830;50.978;5.058;2023-03-04T08:48:46;5.83;;;2.50;;
17424;SDS011;8830;50.978;5.058;2023-03-04T08:51:13;8.50;;;2.73;;
17424;SDS011;8830;50.978;5.058;2023-03-04T08:53:43;6.17;;;2.53;;
17424;SDS011;8830;50.978;5.058;2023-03-04T08:56:10;9.73;;;2.63;;
17424;SDS011;8830;50.978;5.058;2023-03-04T08:58:40;6.57;;;3.30;;
17424;SDS011;8830;50.978;5.058;2023-03-04T09:01:09;9.53;;;2.80;;
17424;SDS011;8830;50.978;5.058;2023-03-04T09:03:37;7.60;;;3.37;;
17424;SDS011;8830;50.978;5.058;2023-03-04T09:06:05;9.30;;;2.87;;
17424;SDS011;8830;50.978;5.058;2023-03-04T09:08:33;6.73;;;2.70;;
17424;SDS011;8830;50.978;5.058;2023-03-04T09:11:00;7.97;;;2.90;;
17424;SDS011;8830;50.978;5.058;2023-03-04T09:13:29;9.43;;;3.30;;
17424;SDS011;8830;50.978;5.058;2023-03-04T09:15:57;8.73;;;2.57;;
17424;SDS011;8830;50.978;5.058;2023-03-04T09:18:27;8.50;;;2.40;;
17424;SDS011;8830;50.978;5.058;2023-03-04T09:20:54;7.73;;;2.30;;
17424;SDS011;8830;50.978;5.058;2023-03-04T09:23:21;5.40;;;2.70;;
17424;SDS011;8830;50.978;5.058;2023-03-04T09:25:48;8.23;;;3.50;;
17424;SDS011;8830;50.978;5.058;2023-03-04T09:28:16;8.50;;;3.03;;
17424;SDS011;8830;50.978;5.058;2023-03-04T09:30:44;7.43;;;3.27;;
17424;SDS011;8830;50.978;5.058;2023-03-04T09:33:11;6.77;;;2.93;;
17424;SDS011;8830;50.978;5.058;2023-03-04T09:35:40;10.57;;;3.17;;
17424;SDS011;8830;50.978;5.058;2023-03-04T09:38:08;8.40;;;3.33;;
17424;SDS011;8830;50.978;5.058;2023-03-04T09:40:36;10.97;;;3.27;;
17424;SDS011;8830;50.978;5.058;2023-03-04T09:43:05;8.80;;;3.27;;
17424;SDS011;8830;50.978;5.058;2023-03-04T09:45:46;6.30;;;3.20;;
17424;SDS011;8830;50.978;5.058;2023-03-04T09:48:17;6.07;;;2.93;;
17424;SDS011;8830;50.978;5.058;2023-03-04T09:50:52;8.93;;;3.40;;
17424;SDS011;8830;50.978;5.058;2023-03-04T09:53:34;10.03;;;3.40;;
17424;SDS011;8830;50.978;5.058;2023-03-04T09:56:09;5.23;;;3.73;;
17424;SDS011;8830;50.978;5.058;2023-03-04T09:58:42;10.83;;;3.90;;
17424;SDS011;8830;50.978;5.058;2023-03-04T10:01:19;10.07;;;4.07;;
17424;SDS011;8830;50.978;5.058;2023-03-04T10:03:51;15.47;;;4.13;;
17424;SDS011;8830;50.978;5.058;2023-03-04T10:06:24;10.60;;;5.13;;
17424;SDS011;8830;50.978;5.058;2023-03-04T10:08:53;18.40;;;5.43;;
17424;SDS011;8830;50.978;5.058;2023-03-04T10:11:26;17.87;;;5.90;;
17424;SDS011;8830;50.978;5.058;2023-03-04T10:14:02;16.00;;;6.23;;
17424;SDS011;8830;50.978;5.058;2023-03-04T10:16:38;12.70;;;6.43;;
17424;SDS011;8830;50.978;5.058;2023-03-04T10:19:22;11.83;;;6.40;;
17424;SDS011;8830;50.978;5.058;2023-03-04T10:21:57;17.93;;;6.17;;
17424;SDS011;8830;50.978;5.058;2023-03-04T10:24:25;18.23;;;7.10;;
17424;SDS011;8830;50.978;5.058;2023-03-04T10:26:57;9.60;;;5.93;;
17424;SDS011;8830;50.978;5.058;2023-03-04T10:29:29;13.53;;;5.23;;
17424;SDS011;8830;50.978;5.058;2023-03-04T10:31:57;10.03;;;5.23;;
17424;SDS011;8830;50.978;5.058;2023-03-04T10:34:25;11.00;;;4.70;;
17424;SDS011;8830;50.978;5.058;2023-03-04T10:36:53;11.30;;;4.30;;
17424;SDS011;8830;50.978;5.058;2023-03-04T10:39:25;13.30;;;4.10;;
17424;SDS011;8830;50.978;5.058;2023-03-04T10:41:55;3.80;;;3.07;;
17424;SDS011;8830;50.978;5.058;2023-03-04T10:44:24;9.57;;;3.50;;
17424;SDS011;8830;50.978;5.058;2023-03-04T10:46:52;7.03;;;3.70;;
17424;SDS011;8830;50.978;5.058;2023-03-04T10:49:22;7.80;;;3.90;;
17424;SDS011;8830;50.978;5.058;2023-03-04T10:51:51;8.07;;;3.90;;
17424;SDS011;8830;50.978;5.058;2023-03-04T10:54:26;6.33;;;3.40;;
17424;SDS011;8830;50.978;5.058;2023-03-04T10:56:57;17.93;;;4.13;;
17424;SDS011;8830;50.978;5.058;2023-03-04T10:59:33;7.47;;;3.40;;
17424;SDS011;8830;50.978;5.058;2023-03-04T11:02:22;6.27;;;2.67;;
17424;SDS011;8830;50.978;5.058;2023-03-04T11:04:53;3.40;;;2.40;;
17424;SDS011;8830;50.978;5.058;2023-03-04T11:07:22;5.00;;;2.50;;
17424;SDS011;8830;50.978;5.058;2023-03-04T11:09:54;11.17;;;3.33;;
17424;SDS011;8830;50.978;5.058;2023-03-04T11:12:33;12.50;;;2.93;;
17424;SDS011;8830;50.978;5.058;2023-03-04T11:15:00;9.43;;;3.17;;
17424;SDS011;8830;50.978;5.058;2023-03-04T11:17:38;6.23;;;2.23;;
17424;SDS011;8830;50.978;5.058;2023-03-04T11:20:13;5.97;;;2.37;;
17424;SDS011;8830;50.978;5.058;2023-03-04T11:22:45;4.90;;;2.33;;
17424;SDS011;8830;50.978;5.058;2023-03-04T11:25:16;8.23;;;2.80;;
17424;SDS011;8830;50.978;5.058;2023-03-04T11:27:50;6.17;;;2.57;;
17424;SDS011;8830;50.978;5.058;2023-03-04T11:33:12;7.00;;;2.63;;
17424;SDS011;8830;50.978;5.058;2023-03-04T11:35:48;9.73;;;2.53;;
17424;SDS011;8830;50.978;5.058;2023-03-04T11:38:23;8.27;;;2.30;;
17424;SDS011;8830;50.978;5.058;2023-03-04T11:40:59;4.70;;;2.83;;
17424;SDS011;8830;50.978;5.058;2023-03-04T11:43:31;3.10;;;1.93;;
17424;SDS011;8830;50.978;5.058;2023-03-04T11:46:07;6.33;;;2.57;;
17424;SDS011;8830;50.978;5.058;2023-03-04T11:48:53;4.77;;;2.00;;
17424;SDS011;8830;50.978;5.058;2023-03-04T11:51:33;7.93;;;2.33;;
17424;SDS011;8830;50.978;5.058;2023-03-04T11:54:12;5.60;;;2.40;;
17424;SDS011;8830;50.978;5.058;2023-03-04T11:56:44;5.83;;;2.30;;
17424;SDS011;8830;50.978;5.058;2023-03-04T12:02:15;5.60;;;2.60;;
17424;SDS011;8830;50.978;5.058;2023-03-04T12:10:43;5.07;;;2.83;;
17424;SDS011;8830;50.978;5.058;2023-03-04T12:13:26;5.93;;;3.00;;
17424;SDS011;8830;50.978;5.058;2023-03-04T12:16:03;9.60;;;2.83;;
17424;SDS011;8830;50.978;5.058;2023-03-04T12:18:58;6.57;;;2.60;;
17424;SDS011;8830;50.978;5.058;2023-03-04T12:21:50;7.30;;;2.73;;
17424;SDS011;8830;50.978;5.058;2023-03-04T12:24:40;11.27;;;3.00;;
17424;SDS011;8830;50.978;5.058;2023-03-04T12:27:21;5.97;;;4.10;;
17424;SDS011;8830;50.978;5.058;2023-03-04T12:29:57;10.20;;;3.60;;
17424;SDS011;8830;50.978;5.058;2023-03-04T12:32:33;3.57;;;3.00;;
17424;SDS011;8830;50.978;5.058;2023-03-04T12:35:19;6.40;;;3.40;;
17424;SDS011;8830;50.978;5.058;2023-03-04T12:38:00;9.60;;;3.10;;
17424;SDS011;8830;50.978;5.058;2023-03-04T12:40:49;5.10;;;2.30;;
17424;SDS011;8830;50.978;5.058;2023-03-04T12:43:30;6.20;;;2.47;;
17424;SDS011;8830;50.978;5.058;2023-03-04T12:46:13;6.07;;;3.03;;
17424;SDS011;8830;50.978;5.058;2023-03-04T12:48:51;4.37;;;3.30;;
17424;SDS011;8830;50.978;5.058;2023-03-04T12:51:29;6.63;;;3.03;;
17424;SDS011;8830;50.978;5.058;2023-03-04T12:54:13;3.97;;;2.70;;
17424;SDS011;8830;50.978;5.058;2023-03-04T12:56:50;8.80;;;2.70;;
17424;SDS011;8830;50.978;5.058;2023-03-04T12:59:22;5.30;;;2.63;;
17424;SDS011;8830;50.978;5.058;2023-03-04T13:02:10;9.00;;;3.23;;
17424;SDS011;8830;50.978;5.058;2023-03-04T13:04:57;6.20;;;3.03;;
17424;SDS011;8830;50.978;5.058;2023-03-04T13:07:32;4.70;;;2.60;;
17424;SDS011;8830;50.978;5.058;2023-03-04T13:10:07;5.13;;;2.77;;
17424;SDS011;8830;50.978;5.058;2023-03-04T13:12:47;5.20;;;2.30;;
17424;SDS011;8830;50.978;5.058;2023-03-04T13:15:29;8.70;;;2.70;;
17424;SDS011;8830;50.978;5.058;2023-03-04T13:18:03;5.97;;;3.17;;
17424;SDS011;8830;50.978;5.058;2023-03-04T13:20:46;4.03;;;3.07;;
17424;SDS011;8830;50.978;5.058;2023-03-04T13:23:32;5.20;;;2.70;;
17424;SDS011;8830;50.978;5.058;2023-03-04T13:26:19;6.73;;;2.90;;
17424;SDS011;8830;50.978;5.058;2023-03-04T13:28:52;10.27;;;6.63;;
17424;SDS011;8830;50.978;5.058;2023-03-04T13:31:41;5.97;;;2.80;;
17424;SDS011;8830;50.978;5.058;2023-03-04T13:37:27;2.23;;;1.83;;
17424;SDS011;8830;50.978;5.058;2023-03-04T13:45:53;5.47;;;2.87;;
17424;SDS011;8830;50.978;5.058;2023-03-04T13:48:23;4.93;;;2.20;;
17424;SDS011;8830;50.978;5.058;2023-03-04T13:50:55;5.57;;;2.17;;
17424;SDS011;8830;50.978;5.058;2023-03-04T13:53:36;4.33;;;1.80;;
17424;SDS011;8830;50.978;5.058;2023-03-04T13:56:17;6.77;;;2.00;;
17424;SDS011;8830;50.978;5.058;2023-03-04T14:02:02;8.13;;;2.90;;
17424;SDS011;8830;50.978;5.058;2023-03-04T14:04:37;9.93;;;2.43;;
17424;SDS011;8830;50.978;5.058;2023-03-04T14:07:17;5.20;;;2.50;;
17424;SDS011;8830;50.978;5.058;2023-03-04T14:09:52;6.00;;;2.30;;
17424;SDS011;8830;50.978;5.058;2023-03-04T14:12:21;3.17;;;2.47;;
17424;SDS011;8830;50.978;5.058;2023-03-04T14:14:49;6.80;;;3.23;;
17424;SDS011;8830;50.978;5.058;2023-03-04T14:17:18;7.33;;;2.40;;
17424;SDS011;8830;50.978;5.058;2023-03-04T14:19:47;6.30;;;3.20;;
17424;SDS011;8830;50.978;5.058;2023-03-04T14:22:21;6.13;;;3.40;;
17424;SDS011;8830;50.978;5.058;2023-03-04T14:24:54;4.73;;;3.07;;
17424;SDS011;8830;50.978;5.058;2023-03-04T14:27:25;5.30;;;3.17;;
17424;SDS011;8830;50.978;5.058;2023-03-04T14:29:56;7.37;;;3.20;;
17424;SDS011;8830;50.978;5.058;2023-03-04T14:32:23;9.23;;;2.97;;
17424;SDS011;8830;50.978;5.058;2023-03-04T14:34:53;8.20;;;3.70;;
17424;SDS011;8830;50.978;5.058;2023-03-04T14:37:28;8.23;;;2.93;;
17424;SDS011;8830;50.978;5.058;2023-03-04T14:40:04;5.83;;;3.03;;
17424;SDS011;8830;50.978;5.058;2023-03-04T14:42:35;6.80;;;3.10;;
17424;SDS011;8830;50.978;5.058;2023-03-04T14:45:05;11.20;;;3.00;;
17424;SDS011;8830;50.978;5.058;2023-03-04T14:47:37;7.43;;;3.50;;
17424;SDS011;8830;50.978;5.058;2023-03-04T14:50:10;10.43;;;3.63;;
17424;SDS011;8830;50.978;5.058;2023-03-04T14:52:41;4.53;;;3.27;;
17424;SDS011;8830;50.978;5.058;2023-03-04T14:55:21;3.33;;;2.93;;
17424;SDS011;8830;50.978;5.058;2023-03-04T14:57:50;5.90;;;3.03;;
17424;SDS011;8830;50.978;5.058;2023-03-04T15:00:26;3.90;;;2.90;;
17424;SDS011;8830;50.978;5.058;2023-03-04T15:02:56;5.17;;;3.20;;
17424;SDS011;8830;50.978;5.058;2023-03-04T15:05:26;3.67;;;3.30;;
17424;SDS011;8830;50.978;5.058;2023-03-04T15:07:57;5.17;;;3.10;;
17424;SDS011;8830;50.978;5.058;2023-03-04T15:10:26;4.97;;;3.00;;
17424;SDS011;8830;50.978;5.058;2023-03-04T15:12:57;5.73;;;3.47;;
17424;SDS011;8830;50.978;5.058;2023-03-04T15:15:32;3.93;;;3.00;;
17424;SDS011;8830;50.978;5.058;2023-03-04T15:18:15;4.43;;;3.30;;
17424;SDS011;8830;50.978;5.058;2023-03-04T15:20:57;4.30;;;3.40;;
17424;SDS011;8830;50.978;5.058;2023-03-04T15:23:27;4.50;;;3.10;;
17424;SDS011;8830;50.978;5.058;2023-03-04T15:25:56;4.23;;;3.33;;
17424;SDS011;8830;50.978;5.058;2023-03-04T15:28:26;5.00;;;3.40;;
17424;SDS011;8830;50.978;5.058;2023-03-04T15:30:58;3.40;;;3.20;;
17424;SDS011;8830;50.978;5.058;2023-03-04T15:33:26;4.43;;;4.07;;
17424;SDS011;8830;50.978;5.058;2023-03-04T15:35:53;4.70;;;3.50;;
17424;SDS011;8830;50.978;5.058;2023-03-04T15:38:23;3.40;;;3.13;;
17424;SDS011;8830;50.978;5.058;2023-03-04T15:40:52;3.83;;;3.50;;